sensor_id;sensor_type;location;lat;lon;timestamp;temperature;humidity
54540;SHT30;40438;52.992;18.604;2024-03-02T00:01:09;8.44;88.47
54540;SHT30;40438;52.992;18.604;2024-03-02T00:03:36;8.38;88.41
54540;SHT30;40438;52.992;18.604;2024-03-02T00:06:03;8.46;88.42
54540;SHT30;40438;52.992;18.604;2024-03-02T00:08:29;8.41;88.42
54540;SHT30;40438;52.992;18.604;2024-03-02T00:10:57;8.46;88.23
54540;SHT30;40438;52.992;18.604;2024-03-02T00:13:23;8.44;88.32
54540;SHT30;40438;52.992;18.604;2024-03-02T00:15:52;8.42;88.16
54540;SHT30;40438;52.992;18.604;2024-03-02T00:18:19;8.36;88.42
54540;SHT30;40438;52.992;18.604;2024-03-02T00:20:45;8.35;88.51
54540;SHT30;40438;52.992;18.604;2024-03-02T00:23:15;8.36;88.52
54540;SHT30;40438;52.992;18.604;2024-03-02T00:25:43;8.39;88.47
54540;SHT30;40438;52.992;18.604;2024-03-02T00:28:16;8.45;88.12
54540;SHT30;40438;52.992;18.604;2024-03-02T00:30:54;8.44;88.02
54540;SHT30;40438;52.992;18.604;2024-03-02T00:33:21;8.48;87.91
54540;SHT30;40438;52.992;18.604;2024-03-02T00:35:47;8.42;87.94
54540;SHT30;40438;52.992;18.604;2024-03-02T00:38:14;8.41;87.97
54540;SHT30;40438;52.992;18.604;2024-03-02T00:40:40;8.39;87.99
54540;SHT30;40438;52.992;18.604;2024-03-02T00:43:06;8.39;87.88
54540;SHT30;40438;52.992;18.604;2024-03-02T00:45:34;8.36;87.89
54540;SHT30;40438;52.992;18.604;2024-03-02T00:48:01;8.39;87.91
54540;SHT30;40438;52.992;18.604;2024-03-02T00:50:26;8.41;87.90
54540;SHT30;40438;52.992;18.604;2024-03-02T00:52:52;8.41;87.68
54540;SHT30;40438;52.992;18.604;2024-03-02T00:55:18;8.41;87.56
54540;SHT30;40438;52.992;18.604;2024-03-02T00:57:44;8.39;87.61
54540;SHT30;40438;52.992;18.604;2024-03-02T01:00:11;8.39;87.64
54540;SHT30;40438;52.992;18.604;2024-03-02T01:02:37;8.42;87.61
54540;SHT30;40438;52.992;18.604;2024-03-02T01:05:04;8.45;87.55
54540;SHT30;40438;52.992;18.604;2024-03-02T01:07:30;8.49;87.32
54540;SHT30;40438;52.992;18.604;2024-03-02T01:09:56;8.48;87.12
54540;SHT30;40438;52.992;18.604;2024-03-02T01:12:22;8.50;86.90
54540;SHT30;40438;52.992;18.604;2024-03-02T01:14:48;8.50;86.95
54540;SHT30;40438;52.992;18.604;2024-03-02T01:17:13;8.48;86.97
54540;SHT30;40438;52.992;18.604;2024-03-02T01:19:41;8.52;86.98
54540;SHT30;40438;52.992;18.604;2024-03-02T01:22:08;8.48;86.95
54540;SHT30;40438;52.992;18.604;2024-03-02T01:24:34;8.49;87.05
54540;SHT30;40438;52.992;18.604;2024-03-02T01:27:00;8.49;86.97
54540;SHT30;40438;52.992;18.604;2024-03-02T01:29:26;8.48;86.83
54540;SHT30;40438;52.992;18.604;2024-03-02T01:31:51;8.46;86.68
54540;SHT30;40438;52.992;18.604;2024-03-02T01:34:17;8.50;86.73
54540;SHT30;40438;52.992;18.604;2024-03-02T01:36:43;8.46;86.74
54540;SHT30;40438;52.992;18.604;2024-03-02T01:39:10;8.42;86.80
54540;SHT30;40438;52.992;18.604;2024-03-02T01:41:36;8.44;86.72
54540;SHT30;40438;52.992;18.604;2024-03-02T01:44:02;8.44;86.71
54540;SHT30;40438;52.992;18.604;2024-03-02T01:46:28;8.45;86.66
54540;SHT30;40438;52.992;18.604;2024-03-02T01:48:53;8.44;86.55
54540;SHT30;40438;52.992;18.604;2024-03-02T01:51:19;8.36;86.44
54540;SHT30;40438;52.992;18.604;2024-03-02T01:53:45;8.35;86.53
54540;SHT30;40438;52.992;18.604;2024-03-02T01:56:12;8.36;86.55
54540;SHT30;40438;52.992;18.604;2024-03-02T01:58:38;8.29;86.66
54540;SHT30;40438;52.992;18.604;2024-03-02T02:01:04;8.28;86.70
54540;SHT30;40438;52.992;18.604;2024-03-02T02:03:29;8.22;86.83
54540;SHT30;40438;52.992;18.604;2024-03-02T02:05:55;8.21;86.84
54540;SHT30;40438;52.992;18.604;2024-03-02T02:08:21;8.17;87.03
54540;SHT30;40438;52.992;18.604;2024-03-02T02:10:47;8.17;86.98
54540;SHT30;40438;52.992;18.604;2024-03-02T02:13:14;8.18;86.89
54540;SHT30;40438;52.992;18.604;2024-03-02T02:15:40;8.15;86.86
54540;SHT30;40438;52.992;18.604;2024-03-02T02:18:06;8.17;86.84
54540;SHT30;40438;52.992;18.604;2024-03-02T02:20:32;8.15;86.78
54540;SHT30;40438;52.992;18.604;2024-03-02T02:23:00;8.10;86.72
54540;SHT30;40438;52.992;18.604;2024-03-02T02:25:26;8.13;86.66
54540;SHT30;40438;52.992;18.604;2024-03-02T02:27:52;8.10;86.60
54540;SHT30;40438;52.992;18.604;2024-03-02T02:30:22;8.04;86.66
54540;SHT30;40438;52.992;18.604;2024-03-02T02:32:48;8.03;86.65
54540;SHT30;40438;52.992;18.604;2024-03-02T02:35:14;7.97;86.74
54540;SHT30;40438;52.992;18.604;2024-03-02T02:37:40;7.98;86.69
54540;SHT30;40438;52.992;18.604;2024-03-02T02:40:08;7.91;86.82
54540;SHT30;40438;52.992;18.604;2024-03-02T02:42:34;7.87;86.81
54540;SHT30;40438;52.992;18.604;2024-03-02T02:44:59;7.83;87.00
54540;SHT30;40438;52.992;18.604;2024-03-02T02:47:25;7.79;87.02
54540;SHT30;40438;52.992;18.604;2024-03-02T02:49:51;7.79;87.12
54540;SHT30;40438;52.992;18.604;2024-03-02T02:52:17;7.76;87.19
54540;SHT30;40438;52.992;18.604;2024-03-02T02:54:43;7.76;87.10
54540;SHT30;40438;52.992;18.604;2024-03-02T02:57:10;7.73;87.14
54540;SHT30;40438;52.992;18.604;2024-03-02T02:59:35;7.70;87.14
54540;SHT30;40438;52.992;18.604;2024-03-02T03:02:01;7.73;87.13
54540;SHT30;40438;52.992;18.604;2024-03-02T03:04:27;7.65;87.23
54540;SHT30;40438;52.992;18.604;2024-03-02T03:06:53;7.63;87.32
54540;SHT30;40438;52.992;18.604;2024-03-02T03:09:18;7.65;87.27
54540;SHT30;40438;52.992;18.604;2024-03-02T03:11:44;7.56;87.54
54540;SHT30;40438;52.992;18.604;2024-03-02T03:14:11;7.53;87.57
54540;SHT30;40438;52.992;18.604;2024-03-02T03:16:37;7.50;87.67
54540;SHT30;40438;52.992;18.604;2024-03-02T03:19:03;7.56;87.73
54540;SHT30;40438;52.992;18.604;2024-03-02T03:21:28;7.53;87.65
54540;SHT30;40438;52.992;18.604;2024-03-02T03:23:56;7.47;87.86
54540;SHT30;40438;52.992;18.604;2024-03-02T03:26:21;7.47;87.85
54540;SHT30;40438;52.992;18.604;2024-03-02T03:28:47;7.46;87.98
54540;SHT30;40438;52.992;18.604;2024-03-02T03:31:14;7.47;88.04
54540;SHT30;40438;52.992;18.604;2024-03-02T03:33:40;7.50;88.04
54540;SHT30;40438;52.992;18.604;2024-03-02T03:36:06;7.49;87.95
54540;SHT30;40438;52.992;18.604;2024-03-02T03:38:32;7.52;87.95
54540;SHT30;40438;52.992;18.604;2024-03-02T03:40:57;7.52;87.92
54540;SHT30;40438;52.992;18.604;2024-03-02T03:43:23;7.59;87.83
54540;SHT30;40438;52.992;18.604;2024-03-02T03:45:49;7.66;87.66
54540;SHT30;40438;52.992;18.604;2024-03-02T03:48:16;7.63;87.54
54540;SHT30;40438;52.992;18.604;2024-03-02T03:50:42;7.70;87.33
54540;SHT30;40438;52.992;18.604;2024-03-02T03:53:08;7.69;87.34
54540;SHT30;40438;52.992;18.604;2024-03-02T03:55:33;7.70;87.34
54540;SHT30;40438;52.992;18.604;2024-03-02T03:57:59;7.69;87.39
54540;SHT30;40438;52.992;18.604;2024-03-02T04:00:25;7.70;87.39
54540;SHT30;40438;52.992;18.604;2024-03-02T04:02:50;7.71;87.37
54540;SHT30;40438;52.992;18.604;2024-03-02T04:05:18;7.71;87.30
54540;SHT30;40438;52.992;18.604;2024-03-02T04:07:43;7.71;87.18
54540;SHT30;40438;52.992;18.604;2024-03-02T04:10:10;7.73;87.11
54540;SHT30;40438;52.992;18.604;2024-03-02T04:12:36;7.75;87.10
54540;SHT30;40438;52.992;18.604;2024-03-02T04:15:04;7.76;87.08
54540;SHT30;40438;52.992;18.604;2024-03-02T04:17:31;7.71;87.14
54540;SHT30;40438;52.992;18.604;2024-03-02T04:19:57;7.73;87.17
54540;SHT30;40438;52.992;18.604;2024-03-02T04:22:24;7.73;87.15
54540;SHT30;40438;52.992;18.604;2024-03-02T04:24:51;7.77;87.15
54540;SHT30;40438;52.992;18.604;2024-03-02T04:27:17;7.76;87.18
54540;SHT30;40438;52.992;18.604;2024-03-02T04:29:43;7.76;87.18
54540;SHT30;40438;52.992;18.604;2024-03-02T04:32:09;7.75;87.05
54540;SHT30;40438;52.992;18.604;2024-03-02T04:34:34;7.67;87.06
54540;SHT30;40438;52.992;18.604;2024-03-02T04:37:00;7.67;87.17
54540;SHT30;40438;52.992;18.604;2024-03-02T04:39:27;7.73;87.14
54540;SHT30;40438;52.992;18.604;2024-03-02T04:41:53;7.69;87.18
54540;SHT30;40438;52.992;18.604;2024-03-02T04:44:19;7.79;86.92
54540;SHT30;40438;52.992;18.604;2024-03-02T04:46:44;7.71;86.93
54540;SHT30;40438;52.992;18.604;2024-03-02T04:49:10;7.73;86.97
54540;SHT30;40438;52.992;18.604;2024-03-02T04:51:36;7.76;87.06
54540;SHT30;40438;52.992;18.604;2024-03-02T04:54:02;7.79;86.90
54540;SHT30;40438;52.992;18.604;2024-03-02T04:56:29;7.76;86.86
54540;SHT30;40438;52.992;18.604;2024-03-02T04:58:55;7.75;86.86
54540;SHT30;40438;52.992;18.604;2024-03-02T05:01:20;7.77;86.83
54540;SHT30;40438;52.992;18.604;2024-03-02T05:03:46;7.76;86.91
54540;SHT30;40438;52.992;18.604;2024-03-02T05:06:12;7.69;86.95
54540;SHT30;40438;52.992;18.604;2024-03-02T05:08:37;7.71;87.06
54540;SHT30;40438;52.992;18.604;2024-03-02T05:11:03;7.75;87.06
54540;SHT30;40438;52.992;18.604;2024-03-02T05:13:30;7.67;87.08
54540;SHT30;40438;52.992;18.604;2024-03-02T05:15:56;7.69;86.93
54540;SHT30;40438;52.992;18.604;2024-03-02T05:18:22;7.66;87.09
54540;SHT30;40438;52.992;18.604;2024-03-02T05:20:48;7.70;87.05
54540;SHT30;40438;52.992;18.604;2024-03-02T05:23:13;7.63;87.24
54540;SHT30;40438;52.992;18.604;2024-03-02T05:25:39;7.65;87.27
54540;SHT30;40438;52.992;18.604;2024-03-02T05:28:05;7.62;87.33
54540;SHT30;40438;52.992;18.604;2024-03-02T05:30:32;7.66;87.29
54540;SHT30;40438;52.992;18.604;2024-03-02T05:32:58;7.62;87.33
54540;SHT30;40438;52.992;18.604;2024-03-02T05:35:24;7.65;87.31
54540;SHT30;40438;52.992;18.604;2024-03-02T05:37:49;7.59;87.49
54540;SHT30;40438;52.992;18.604;2024-03-02T05:40:15;7.56;87.66
54540;SHT30;40438;52.992;18.604;2024-03-02T05:42:41;7.52;87.71
54540;SHT30;40438;52.992;18.604;2024-03-02T05:45:07;7.55;87.79
54540;SHT30;40438;52.992;18.604;2024-03-02T05:47:34;7.59;87.74
54540;SHT30;40438;52.992;18.604;2024-03-02T05:50:00;7.62;87.77
54540;SHT30;40438;52.992;18.604;2024-03-02T05:52:26;7.59;87.68
54540;SHT30;40438;52.992;18.604;2024-03-02T05:54:52;7.62;87.56
54540;SHT30;40438;52.992;18.604;2024-03-02T05:57:17;7.65;87.44
54540;SHT30;40438;52.992;18.604;2024-03-02T05:59:43;7.65;87.39
54540;SHT30;40438;52.992;18.604;2024-03-02T06:02:09;7.63;87.35
54540;SHT30;40438;52.992;18.604;2024-03-02T06:04:36;7.62;87.46
54540;SHT30;40438;52.992;18.604;2024-03-02T06:07:02;7.63;87.59
54540;SHT30;40438;52.992;18.604;2024-03-02T06:09:28;7.60;87.55
54540;SHT30;40438;52.992;18.604;2024-03-02T06:11:53;7.66;87.53
54540;SHT30;40438;52.992;18.604;2024-03-02T06:14:19;7.71;87.41
54540;SHT30;40438;52.992;18.604;2024-03-02T06:16:45;7.71;87.45
54540;SHT30;40438;52.992;18.604;2024-03-02T06:19:11;7.75;87.43
54540;SHT30;40438;52.992;18.604;2024-03-02T06:21:38;7.75;87.36
54540;SHT30;40438;52.992;18.604;2024-03-02T06:24:04;7.80;87.23
54540;SHT30;40438;52.992;18.604;2024-03-02T06:26:30;7.85;87.10
54540;SHT30;40438;52.992;18.604;2024-03-02T06:28:55;7.85;87.09
54540;SHT30;40438;52.992;18.604;2024-03-02T06:31:21;7.85;87.11
54540;SHT30;40438;52.992;18.604;2024-03-02T06:33:47;7.87;86.97
54540;SHT30;40438;52.992;18.604;2024-03-02T06:36:13;7.87;87.05
54540;SHT30;40438;52.992;18.604;2024-03-02T06:38:40;7.87;87.15
54540;SHT30;40438;52.992;18.604;2024-03-02T06:41:05;7.87;87.16
54540;SHT30;40438;52.992;18.604;2024-03-02T06:43:31;7.91;87.17
54540;SHT30;40438;52.992;18.604;2024-03-02T06:45:57;7.93;86.97
54540;SHT30;40438;52.992;18.604;2024-03-02T06:48:23;7.93;87.03
54540;SHT30;40438;52.992;18.604;2024-03-02T06:50:49;7.96;86.89
54540;SHT30;40438;52.992;18.604;2024-03-02T06:53:15;7.98;86.89
54540;SHT30;40438;52.992;18.604;2024-03-02T06:55:43;7.98;86.73
54540;SHT30;40438;52.992;18.604;2024-03-02T06:58:08;8.00;86.66
54540;SHT30;40438;52.992;18.604;2024-03-02T07:00:34;8.00;86.63
54540;SHT30;40438;52.992;18.604;2024-03-02T07:03:00;8.00;86.55
54540;SHT30;40438;52.992;18.604;2024-03-02T07:05:26;8.04;86.45
54540;SHT30;40438;52.992;18.604;2024-03-02T07:07:51;8.03;86.56
54540;SHT30;40438;52.992;18.604;2024-03-02T07:10:18;8.04;86.45
54540;SHT30;40438;52.992;18.604;2024-03-02T07:12:45;8.08;86.38
54540;SHT30;40438;52.992;18.604;2024-03-02T07:15:11;8.13;86.37
54540;SHT30;40438;52.992;18.604;2024-03-02T07:17:37;8.14;86.38
54540;SHT30;40438;52.992;18.604;2024-03-02T07:20:04;8.17;86.37
54540;SHT30;40438;52.992;18.604;2024-03-02T07:22:30;8.24;86.30
54540;SHT30;40438;52.992;18.604;2024-03-02T07:24:55;8.25;86.15
54540;SHT30;40438;52.992;18.604;2024-03-02T07:27:21;8.32;85.95
54540;SHT30;40438;52.992;18.604;2024-03-02T07:29:48;8.27;85.88
54540;SHT30;40438;52.992;18.604;2024-03-02T07:32:14;8.36;85.75
54540;SHT30;40438;52.992;18.604;2024-03-02T07:34:40;8.38;85.89
54540;SHT30;40438;52.992;18.604;2024-03-02T07:37:06;8.38;85.94
54540;SHT30;40438;52.992;18.604;2024-03-02T07:39:32;8.42;85.78
54540;SHT30;40438;52.992;18.604;2024-03-02T07:41:58;8.46;85.43
54540;SHT30;40438;52.992;18.604;2024-03-02T07:44:24;8.48;85.46
54540;SHT30;40438;52.992;18.604;2024-03-02T07:46:51;8.48;85.62
54540;SHT30;40438;52.992;18.604;2024-03-02T07:49:17;8.44;85.61
54540;SHT30;40438;52.992;18.604;2024-03-02T07:51:43;8.46;85.63
54540;SHT30;40438;52.992;18.604;2024-03-02T07:54:09;8.46;85.57
54540;SHT30;40438;52.992;18.604;2024-03-02T07:56:35;8.52;85.58
54540;SHT30;40438;52.992;18.604;2024-03-02T07:59:01;8.55;85.52
54540;SHT30;40438;52.992;18.604;2024-03-02T08:01:27;8.52;85.09
54540;SHT30;40438;52.992;18.604;2024-03-02T08:03:54;8.56;85.24
54540;SHT30;40438;52.992;18.604;2024-03-02T08:06:20;8.52;85.23
54540;SHT30;40438;52.992;18.604;2024-03-02T08:08:45;8.60;84.78
54540;SHT30;40438;52.992;18.604;2024-03-02T08:11:11;8.59;85.08
54540;SHT30;40438;52.992;18.604;2024-03-02T08:13:38;8.69;84.73
54540;SHT30;40438;52.992;18.604;2024-03-02T08:16:04;8.77;84.51
54540;SHT30;40438;52.992;18.604;2024-03-02T08:18:30;8.85;84.47
54540;SHT30;40438;52.992;18.604;2024-03-02T08:20:57;8.93;84.24
54540;SHT30;40438;52.992;18.604;2024-03-02T08:23:23;9.13;83.92
54540;SHT30;40438;52.992;18.604;2024-03-02T08:25:49;9.35;83.06
54540;SHT30;40438;52.992;18.604;2024-03-02T08:28:15;9.49;82.89
54540;SHT30;40438;52.992;18.604;2024-03-02T08:30:40;9.65;81.42
54540;SHT30;40438;52.992;18.604;2024-03-02T08:33:06;9.97;80.72
54540;SHT30;40438;52.992;18.604;2024-03-02T08:35:32;10.09;80.18
54540;SHT30;40438;52.992;18.604;2024-03-02T08:37:59;9.96;80.22
54540;SHT30;40438;52.992;18.604;2024-03-02T08:40:25;9.96;80.05
54540;SHT30;40438;52.992;18.604;2024-03-02T08:42:51;9.92;79.97
54540;SHT30;40438;52.992;18.604;2024-03-02T08:45:16;9.87;79.91
54540;SHT30;40438;52.992;18.604;2024-03-02T08:47:42;9.75;80.23
54540;SHT30;40438;52.992;18.604;2024-03-02T08:50:08;9.82;80.51
54540;SHT30;40438;52.992;18.604;2024-03-02T08:52:34;9.85;80.54
54540;SHT30;40438;52.992;18.604;2024-03-02T08:55:02;9.81;80.64
54540;SHT30;40438;52.992;18.604;2024-03-02T08:57:27;9.79;80.34
54540;SHT30;40438;52.992;18.604;2024-03-02T08:59:53;9.86;80.36
54540;SHT30;40438;52.992;18.604;2024-03-02T09:02:19;10.07;80.12
54540;SHT30;40438;52.992;18.604;2024-03-02T09:04:45;10.54;78.78
54540;SHT30;40438;52.992;18.604;2024-03-02T09:07:11;11.06;77.12
54540;SHT30;40438;52.992;18.604;2024-03-02T09:09:36;11.30;76.36
54540;SHT30;40438;52.992;18.604;2024-03-02T09:12:04;11.44;75.26
54540;SHT30;40438;52.992;18.604;2024-03-02T09:14:30;11.46;74.76
54540;SHT30;40438;52.992;18.604;2024-03-02T09:16:56;11.51;74.97
54540;SHT30;40438;52.992;18.604;2024-03-02T09:19:21;11.64;75.05
54540;SHT30;40438;52.992;18.604;2024-03-02T09:21:47;11.65;74.60
54540;SHT30;40438;52.992;18.604;2024-03-02T09:24:13;11.63;74.79
54540;SHT30;40438;52.992;18.604;2024-03-02T09:26:39;11.58;74.53
54540;SHT30;40438;52.992;18.604;2024-03-02T09:29:06;11.53;74.70
54540;SHT30;40438;52.992;18.604;2024-03-02T09:31:32;11.43;75.46
54540;SHT30;40438;52.992;18.604;2024-03-02T09:33:58;11.42;75.21
54540;SHT30;40438;52.992;18.604;2024-03-02T09:36:23;11.40;75.19
54540;SHT30;40438;52.992;18.604;2024-03-02T09:38:49;11.36;75.46
54540;SHT30;40438;52.992;18.604;2024-03-02T09:41:15;11.44;75.10
54540;SHT30;40438;52.992;18.604;2024-03-02T09:43:41;11.55;74.94
54540;SHT30;40438;52.992;18.604;2024-03-02T09:46:09;11.60;74.88
54540;SHT30;40438;52.992;18.604;2024-03-02T09:48:35;11.72;75.12
54540;SHT30;40438;52.992;18.604;2024-03-02T09:51:01;11.79;74.33
54540;SHT30;40438;52.992;18.604;2024-03-02T09:53:31;11.85;73.98
54540;SHT30;40438;52.992;18.604;2024-03-02T09:55:57;11.72;73.88
54540;SHT30;40438;52.992;18.604;2024-03-02T09:58:23;11.68;73.96
54540;SHT30;40438;52.992;18.604;2024-03-02T10:00:48;11.70;74.39
54540;SHT30;40438;52.992;18.604;2024-03-02T10:03:18;11.68;74.63
54540;SHT30;40438;52.992;18.604;2024-03-02T10:05:44;11.81;74.14
54540;SHT30;40438;52.992;18.604;2024-03-02T10:08:10;11.84;74.17
54540;SHT30;40438;52.992;18.604;2024-03-02T10:10:37;11.91;73.58
54540;SHT30;40438;52.992;18.604;2024-03-02T10:13:04;11.85;73.75
54540;SHT30;40438;52.992;18.604;2024-03-02T10:15:30;11.96;73.45
54540;SHT30;40438;52.992;18.604;2024-03-02T10:17:56;12.03;73.50
54540;SHT30;40438;52.992;18.604;2024-03-02T10:20:24;11.98;73.32
54540;SHT30;40438;52.992;18.604;2024-03-02T10:22:50;11.93;73.24
54540;SHT30;40438;52.992;18.604;2024-03-02T10:25:28;11.92;73.14
54540;SHT30;40438;52.992;18.604;2024-03-02T10:27:57;11.85;73.34
54540;SHT30;40438;52.992;18.604;2024-03-02T10:30:23;11.92;73.12
54540;SHT30;40438;52.992;18.604;2024-03-02T10:32:49;11.85;73.49
54540;SHT30;40438;52.992;18.604;2024-03-02T10:35:15;11.93;73.25
54540;SHT30;40438;52.992;18.604;2024-03-02T10:37:43;11.91;73.36
54540;SHT30;40438;52.992;18.604;2024-03-02T10:40:11;11.95;73.21
54540;SHT30;40438;52.992;18.604;2024-03-02T10:42:38;11.95;73.30
54540;SHT30;40438;52.992;18.604;2024-03-02T10:45:05;11.86;73.51
54540;SHT30;40438;52.992;18.604;2024-03-02T10:47:33;11.89;73.49
54540;SHT30;40438;52.992;18.604;2024-03-02T10:50:04;11.92;73.22
54540;SHT30;40438;52.992;18.604;2024-03-02T10:52:30;11.99;73.40
54540;SHT30;40438;52.992;18.604;2024-03-02T10:54:57;12.09;72.80
54540;SHT30;40438;52.992;18.604;2024-03-02T10:57:24;12.19;73.02
54540;SHT30;40438;52.992;18.604;2024-03-02T10:59:53;12.28;72.74
54540;SHT30;40438;52.992;18.604;2024-03-02T11:02:21;12.42;72.53
54540;SHT30;40438;52.992;18.604;2024-03-02T11:04:49;12.68;71.63
54540;SHT30;40438;52.992;18.604;2024-03-02T11:07:18;12.90;70.95
54540;SHT30;40438;52.992;18.604;2024-03-02T11:09:51;13.04;70.32
54540;SHT30;40438;52.992;18.604;2024-03-02T11:12:26;13.23;70.19
54540;SHT30;40438;52.992;18.604;2024-03-02T11:14:55;13.42;69.06
54540;SHT30;40438;52.992;18.604;2024-03-02T11:17:22;13.57;69.37
54540;SHT30;40438;52.992;18.604;2024-03-02T11:19:49;13.76;68.78
54540;SHT30;40438;52.992;18.604;2024-03-02T11:22:15;13.89;68.19
54540;SHT30;40438;52.992;18.604;2024-03-02T11:24:49;13.98;68.15
54540;SHT30;40438;52.992;18.604;2024-03-02T11:30:51;14.26;67.52
54540;SHT30;40438;52.992;18.604;2024-03-02T11:33:23;14.42;66.96
54540;SHT30;40438;52.992;18.604;2024-03-02T11:35:49;14.63;67.17
54540;SHT30;40438;52.992;18.604;2024-03-02T11:38:15;14.90;66.36
54540;SHT30;40438;52.992;18.604;2024-03-02T11:40:41;15.11;65.14
54540;SHT30;40438;52.992;18.604;2024-03-02T11:43:07;15.17;63.63
54540;SHT30;40438;52.992;18.604;2024-03-02T11:45:33;15.18;63.83
54540;SHT30;40438;52.992;18.604;2024-03-02T11:48:00;15.22;63.88
54540;SHT30;40438;52.992;18.604;2024-03-02T11:50:29;15.18;63.90
54540;SHT30;40438;52.992;18.604;2024-03-02T11:52:55;15.12;64.61
54540;SHT30;40438;52.992;18.604;2024-03-02T11:55:21;15.11;64.76
54540;SHT30;40438;52.992;18.604;2024-03-02T11:57:49;15.11;65.11
54540;SHT30;40438;52.992;18.604;2024-03-02T12:00:17;15.20;65.01
54540;SHT30;40438;52.992;18.604;2024-03-02T12:02:43;15.31;64.69
54540;SHT30;40438;52.992;18.604;2024-03-02T12:05:10;15.41;63.80
54540;SHT30;40438;52.992;18.604;2024-03-02T12:07:36;15.26;63.85
54540;SHT30;40438;52.992;18.604;2024-03-02T12:10:02;15.28;64.26
54540;SHT30;40438;52.992;18.604;2024-03-02T12:12:28;15.26;63.96
54540;SHT30;40438;52.992;18.604;2024-03-02T12:14:53;15.15;64.69
54540;SHT30;40438;52.992;18.604;2024-03-02T12:17:19;15.06;64.23
54540;SHT30;40438;52.992;18.604;2024-03-02T12:19:45;14.97;64.82
54540;SHT30;40438;52.992;18.604;2024-03-02T12:22:12;14.99;64.99
54540;SHT30;40438;52.992;18.604;2024-03-02T12:24:38;14.87;65.10
54540;SHT30;40438;52.992;18.604;2024-03-02T12:27:04;14.89;64.79
54540;SHT30;40438;52.992;18.604;2024-03-02T12:29:30;14.90;65.31
54540;SHT30;40438;52.992;18.604;2024-03-02T12:31:56;15.11;64.39
54540;SHT30;40438;52.992;18.604;2024-03-02T12:34:22;15.14;64.38
54540;SHT30;40438;52.992;18.604;2024-03-02T12:36:48;15.17;64.42
54540;SHT30;40438;52.992;18.604;2024-03-02T12:39:16;15.11;64.22
54540;SHT30;40438;52.992;18.604;2024-03-02T12:41:41;15.11;64.08
54540;SHT30;40438;52.992;18.604;2024-03-02T12:44:07;15.06;64.31
54540;SHT30;40438;52.992;18.604;2024-03-02T12:46:33;14.86;64.82
54540;SHT30;40438;52.992;18.604;2024-03-02T12:49:06;14.72;65.08
54540;SHT30;40438;52.992;18.604;2024-03-02T12:51:32;14.69;65.55
54540;SHT30;40438;52.992;18.604;2024-03-02T12:53:58;14.53;66.26
54540;SHT30;40438;52.992;18.604;2024-03-02T12:56:26;14.51;66.85
54540;SHT30;40438;52.992;18.604;2024-03-02T12:58:53;14.49;66.56
54540;SHT30;40438;52.992;18.604;2024-03-02T13:01:19;14.51;66.44
54540;SHT30;40438;52.992;18.604;2024-03-02T13:03:45;14.56;66.25
54540;SHT30;40438;52.992;18.604;2024-03-02T13:06:11;14.48;65.96
54540;SHT30;40438;52.992;18.604;2024-03-02T13:08:36;14.48;66.27
54540;SHT30;40438;52.992;18.604;2024-03-02T13:11:03;14.46;66.12
54540;SHT30;40438;52.992;18.604;2024-03-02T13:13:32;14.53;67.11
54540;SHT30;40438;52.992;18.604;2024-03-02T13:15:58;14.51;66.93
54540;SHT30;40438;52.992;18.604;2024-03-02T13:18:24;14.52;67.10
54540;SHT30;40438;52.992;18.604;2024-03-02T13:20:50;14.56;67.59
54540;SHT30;40438;52.992;18.604;2024-03-02T13:23:15;14.52;67.04
54540;SHT30;40438;52.992;18.604;2024-03-02T13:25:41;14.46;67.34
54540;SHT30;40438;52.992;18.604;2024-03-02T13:28:07;14.26;67.25
54540;SHT30;40438;52.992;18.604;2024-03-02T13:30:34;14.15;67.59
54540;SHT30;40438;52.992;18.604;2024-03-02T13:33:00;14.10;67.41
54540;SHT30;40438;52.992;18.604;2024-03-02T13:35:26;14.04;68.06
54540;SHT30;40438;52.992;18.604;2024-03-02T13:37:51;13.84;67.97
54540;SHT30;40438;52.992;18.604;2024-03-02T13:40:17;13.69;68.44
54540;SHT30;40438;52.992;18.604;2024-03-02T13:42:43;13.54;68.85
54540;SHT30;40438;52.992;18.604;2024-03-02T13:45:09;13.43;69.06
54540;SHT30;40438;52.992;18.604;2024-03-02T13:47:36;13.43;69.43
54540;SHT30;40438;52.992;18.604;2024-03-02T13:50:02;13.33;69.87
54540;SHT30;40438;52.992;18.604;2024-03-02T13:52:28;13.28;70.24
54540;SHT30;40438;52.992;18.604;2024-03-02T13:54:53;13.14;70.15
54540;SHT30;40438;52.992;18.604;2024-03-02T13:57:19;13.01;70.71
54540;SHT30;40438;52.992;18.604;2024-03-02T13:59:45;12.92;71.22
54540;SHT30;40438;52.992;18.604;2024-03-02T14:02:12;12.77;72.12
54540;SHT30;40438;52.992;18.604;2024-03-02T14:04:39;12.68;72.29
54540;SHT30;40438;52.992;18.604;2024-03-02T14:07:05;12.67;72.46
54540;SHT30;40438;52.992;18.604;2024-03-02T14:09:31;12.56;72.90
54540;SHT30;40438;52.992;18.604;2024-03-02T14:11:57;12.49;72.56
54540;SHT30;40438;52.992;18.604;2024-03-02T14:14:23;12.29;73.13
54540;SHT30;40438;52.992;18.604;2024-03-02T14:16:49;12.12;73.68
54540;SHT30;40438;52.992;18.604;2024-03-02T14:19:14;12.03;74.26
54540;SHT30;40438;52.992;18.604;2024-03-02T14:21:42;11.93;74.63
54540;SHT30;40438;52.992;18.604;2024-03-02T14:24:08;11.88;74.80
54540;SHT30;40438;52.992;18.604;2024-03-02T14:26:34;11.82;74.95
54540;SHT30;40438;52.992;18.604;2024-03-02T14:28:59;11.79;75.36
54540;SHT30;40438;52.992;18.604;2024-03-02T14:31:25;11.78;75.53
54540;SHT30;40438;52.992;18.604;2024-03-02T14:33:51;11.77;75.44
54540;SHT30;40438;52.992;18.604;2024-03-02T14:36:17;11.68;75.62
54540;SHT30;40438;52.992;18.604;2024-03-02T14:38:44;11.65;75.62
54540;SHT30;40438;52.992;18.604;2024-03-02T14:41:10;11.68;75.44
54540;SHT30;40438;52.992;18.604;2024-03-02T14:43:36;11.65;75.49
54540;SHT30;40438;52.992;18.604;2024-03-02T14:46:01;11.63;75.79
54540;SHT30;40438;52.992;18.604;2024-03-02T14:48:27;11.57;76.07
54540;SHT30;40438;52.992;18.604;2024-03-02T14:50:53;11.50;76.13
54540;SHT30;40438;52.992;18.604;2024-03-02T14:53:19;11.46;76.29
54540;SHT30;40438;52.992;18.604;2024-03-02T14:55:46;11.40;76.54
54540;SHT30;40438;52.992;18.604;2024-03-02T14:58:12;11.33;76.79
54540;SHT30;40438;52.992;18.604;2024-03-02T15:00:38;11.33;76.66
54540;SHT30;40438;52.992;18.604;2024-03-02T15:03:04;11.34;76.74
54540;SHT30;40438;52.992;18.604;2024-03-02T15:05:30;11.24;77.13
54540;SHT30;40438;52.992;18.604;2024-03-02T15:07:56;11.23;76.93
54540;SHT30;40438;52.992;18.604;2024-03-02T15:10:21;11.10;77.54
54540;SHT30;40438;52.992;18.604;2024-03-02T15:12:49;11.09;77.35
54540;SHT30;40438;52.992;18.604;2024-03-02T15:15:14;11.14;77.50
54540;SHT30;40438;52.992;18.604;2024-03-02T15:17:40;11.06;77.55
54540;SHT30;40438;52.992;18.604;2024-03-02T15:20:08;11.03;77.75
54540;SHT30;40438;52.992;18.604;2024-03-02T15:22:34;10.97;77.96